Time;durP1;ratioP1;P1;durP2;ratioP2;P2;SDS_P1;SDS_P2;PMS_P1;PMS_P2;Temp;Humidity;BMP_temperature;BMP_pressure;BME280_temperature;BME280_humidity;BME280_pressure;Samples;Min_cycle;Max_cycle;Signal;HPM_P1;HPM_P2
2021/04/03 00:00:50;;;;;;;33.70;19.60;;;;;;;2.56;61.23;99128.52;471021;1170;114069;-71
2021/04/03 00:10:56;;;;;;;35.83;20.80;;;;;;;2.64;62.36;99135.08;471294;1169;114117;-71
2021/04/03 00:21:00;;;;;;;29.93;17.90;;;;;;;2.79;61.62;99128.47;470619;1169;114532;-71
2021/04/03 00:31:04;;;;;;;30.40;17.90;;;;;;;2.94;61.71;99118.38;471187;1168;115559;-72
2021/04/03 00:41:08;;;;;;;27.93;17.10;;;;;;;3.10;61.59;99122.97;471308;1168;114145;-72
2021/04/03 00:51:12;;;;;;;27.73;16.57;;;;;;;3.14;61.56;99120.19;471025;1169;114259;-70
2021/04/03 01:01:18;;;;;;;20.70;13.05;;;;;;;3.31;61.71;99116.03;471709;1170;114340;-72
2021/04/03 01:11:27;;;;;;;15.53;9.85;;;;;;;3.58;61.88;99118.36;471391;1170;114545;-71
2021/04/03 01:21:51;;;;;;;10.47;7.27;;;;;;;3.69;63.15;99120.52;471075;1170;113819;-71
2021/04/03 01:31:56;;;;;;;6.87;5.37;;;;;;;3.77;64.01;99113.24;471305;1169;113682;-71
2021/04/03 01:42:05;;;;;;;8.90;5.83;;;;;;;3.88;64.63;99113.61;471760;1170;113948;-72
2021/04/03 01:52:10;;;;;;;11.53;8.00;;;;;;;3.89;65.45;99110.10;471575;1169;114027;-71
2021/04/03 02:02:16;;;;;;;11.80;9.23;;;;;;;3.72;67.22;99105.65;471491;1170;114284;-72
2021/04/03 02:12:21;;;;;;;13.45;9.15;;;;;;;3.57;67.98;99108.89;471825;1170;113814;-71
2021/04/03 02:22:24;;;;;;;14.70;9.30;;;;;;;3.53;69.03;99110.80;472057;1168;113793;-72
2021/04/03 02:32:28;;;;;;;11.17;7.70;;;;;;;3.42;69.96;99098.26;471791;1170;114111;-72
2021/04/03 02:42:35;;;;;;;10.07;8.37;;;;;;;3.24;70.32;99114.63;472086;1169;114187;-69
2021/04/03 02:52:40;;;;;;;8.75;7.85;;;;;;;3.22;70.88;99099.93;472249;1169;113922;-68
2021/04/03 03:02:46;;;;;;;10.07;8.33;;;;;;;3.06;71.59;99102.34;471450;1171;113916;-67
2021/04/03 03:12:51;;;;;;;11.40;7.77;;;;;;;2.98;71.92;99104.40;471357;1169;114796;-68
2021/04/03 03:22:56;;;;;;;8.60;7.67;;;;;;;2.88;71.94;99110.86;471898;1170;114040;-67
2021/04/03 03:33:00;;;;;;;8.03;6.37;;;;;;;2.86;72.52;99108.31;471757;1169;114480;-71
2021/04/03 03:43:05;;;;;;;5.50;5.00;;;;;;;2.74;72.90;99113.98;471418;1170;114441;-70
2021/04/03 03:53:09;;;;;;;5.40;4.90;;;;;;;2.63;72.78;99109.24;471848;1169;114305;-71
2021/04/03 04:03:12;;;;;;;5.65;4.95;;;;;;;2.58;73.16;99124.97;471746;1168;114794;-71
2021/04/03 04:13:17;;;;;;;7.53;6.77;;;;;;;2.56;74.00;99129.38;471894;1171;114139;-69
2021/04/03 04:23:20;;;;;;;8.80;7.35;;;;;;;2.45;73.97;99131.53;471477;1169;113767;-71
2021/04/03 04:33:24;;;;;;;9.20;8.30;;;;;;;2.40;74.69;99134.30;471904;1170;113678;-71
2021/04/03 04:43:28;;;;;;;10.50;6.70;;;;;;;2.38;74.29;99136.94;471991;1171;113621;-71
2021/04/03 04:53:33;;;;;;;6.97;6.00;;;;;;;2.27;74.46;99146.85;471998;1170;113881;-71
2021/04/03 05:03:37;;;;;;;4.73;4.33;;;;;;;2.11;74.17;99146.56;471774;1169;113967;-70
2021/04/03 05:13:42;;;;;;;5.30;4.27;;;;;;;1.92;74.61;99169.70;471784;1169;113957;-70
2021/04/03 05:23:45;;;;;;;3.73;3.33;;;;;;;1.79;74.50;99169.27;472412;1170;115140;-70
2021/04/03 05:33:49;;;;;;;3.75;3.30;;;;;;;1.66;74.43;99198.16;471862;1168;113782;-69
2021/04/03 05:43:55;;;;;;;4.93;3.67;;;;;;;1.62;74.95;99206.94;471844;1169;114062;-69
2021/04/03 05:54:02;;;;;;;4.10;3.70;;;;;;;1.48;75.34;99219.49;472182;1170;113639;-74
2021/04/03 06:04:06;;;;;;;6.27;5.03;;;;;;;1.56;75.72;99234.77;472348;1168;113802;-69
2021/04/03 06:14:10;;;;;;;4.80;3.97;;;;;;;1.71;75.86;99242.02;472250;1168;113875;-69
2021/04/03 06:24:26;;;;;;;3.15;2.85;;;;;;;2.15;75.96;99235.38;471943;1168;113810;-70
2021/04/03 06:34:33;;;;;;;6.33;5.00;;;;;;;2.35;74.95;99245.89;472258;1170;113866;-70
2021/04/03 06:44:37;;;;;;;7.90;6.60;;;;;;;2.50;74.47;99248.81;472265;1168;113986;-69
2021/04/03 06:54:41;;;;;;;11.75;9.05;;;;;;;2.59;74.40;99270.96;471774;1169;113983;-70
2021/04/03 07:04:46;;;;;;;17.10;10.28;;;;;;;2.72;74.10;99272.23;471927;1168;113865;-70
2021/04/03 07:14:51;;;;;;;13.77;9.73;;;;;;;3.05;74.25;99296.95;472304;1169;114430;-70
2021/04/03 07:24:55;;;;;;;13.87;10.43;;;;;;;3.43;73.77;99311.96;472109;1169;114344;-70
2021/04/03 07:35:00;;;;;;;15.17;11.40;;;;;;;3.55;73.41;99321.00;471964;1167;114189;-70
2021/04/03 07:45:09;;;;;;;12.97;10.17;;;;;;;3.93;72.33;99329.03;472436;1169;114617;-70
2021/04/03 07:55:34;;;;;;;14.37;10.50;;;;;;;4.01;71.82;99349.50;472401;1169;114002;-69
2021/04/03 08:05:39;;;;;;;11.87;9.83;;;;;;;3.52;71.96;99370.45;472922;1169;114234;-70
2021/04/03 08:15:48;;;;;;;12.00;9.70;;;;;;;3.40;71.60;99387.33;472449;1168;113782;-70
2021/04/03 08:25:54;;;;;;;12.50;8.87;;;;;;;3.84;70.85;99391.73;472572;1168;113776;-70
2021/04/03 08:35:58;;;;;;;8.30;6.90;;;;;;;8.35;69.04;99404.86;471890;1170;115025;-70
2021/04/03 08:46:09;;;;;;;5.17;4.67;;;;;;;11.70;60.20;99389.59;472386;1170;114069;-70
2021/04/03 08:56:18;;;;;;;6.30;5.63;;;;;;;9.49;56.94;99404.23;471424;1170;114302;-69
2021/04/03 09:06:43;;;;;;;6.67;5.97;;;;;;;7.40;58.20;99433.62;471621;1169;114218;-70
2021/04/03 09:16:47;;;;;;;5.63;5.00;;;;;;;7.48;59.64;99438.42;456175;1170;20002326;-68
2021/04/03 09:26:51;;;;;;;5.20;4.70;;;;;;;7.62;57.92;99436.83;471187;1171;114903;-66
2021/04/03 09:36:54;;;;;;;6.05;4.40;;;;;;;7.81;56.50;99445.36;471539;1168;113632;-67
2021/04/03 09:47:01;;;;;;;6.30;4.75;;;;;;;8.57;55.79;99445.52;471435;1169;113887;-67
2021/04/03 09:57:06;;;;;;;5.63;3.37;;;;;;;8.59;53.76;99443.65;471654;1168;113994;-67
2021/04/03 10:07:10;;;;;;;4.07;3.37;;;;;;;8.37;52.67;99452.73;471536;1169;113968;-67
2021/04/03 10:17:16;;;;;;;4.03;3.10;;;;;;;8.46;52.19;99447.88;471805;1167;114014;-68
2021/04/03 10:27:20;;;;;;;3.80;3.13;;;;;;;8.44;51.88;99462.83;471812;1168;114472;-68
2021/04/03 10:37:24;;;;;;;3.23;3.00;;;;;;;8.53;50.98;99454.48;471459;1170;113665;-67
2021/04/03 10:47:28;;;;;;;3.25;2.20;;;;;;;8.52;50.35;99452.81;471295;1170;113906;-67
2021/04/03 10:57:32;;;;;;;3.25;2.60;;;;;;;8.60;48.56;99450.59;471921;1169;114259;-68
2021/04/03 11:07:36;;;;;;;1.97;1.83;;;;;;;8.62;49.11;99456.58;472003;1168;114014;-67
2021/04/03 11:17:40;;;;;;;3.93;3.00;;;;;;;9.25;48.45;99459.84;471733;1169;113515;-68
2021/04/03 11:27:43;;;;;;;3.57;3.23;;;;;;;9.29;47.94;99449.16;471874;1168;113845;-68
2021/04/03 11:37:48;;;;;;;4.50;2.73;;;;;;;8.52;46.16;99447.58;472033;1168;114569;-68
2021/04/03 11:47:53;;;;;;;2.60;2.40;;;;;;;8.87;46.17;99435.95;472105;1169;114046;-67
2021/04/03 11:57:59;;;;;;;2.33;1.57;;;;;;;9.44;45.22;99460.49;471253;1168;114043;-67
2021/04/03 12:08:04;;;;;;;3.50;1.30;;;;;;;7.73;47.38;99498.96;471276;1169;115235;-67
2021/04/03 12:18:08;;;;;;;1.60;1.45;;;;;;;5.80;53.96;99519.65;471337;1169;113954;-67
2021/04/03 12:28:15;;;;;;;2.40;1.70;;;;;;;5.81;56.58;99495.28;471643;1171;113741;-67
2021/04/03 12:38:19;;;;;;;4.85;3.60;;;;;;;5.92;58.32;99497.41;471313;1170;114046;-71
2021/04/03 12:48:24;;;;;;;3.37;2.40;;;;;;;6.34;58.23;99505.91;471056;1170;113928;-70
2021/04/03 12:58:28;;;;;;;3.43;2.10;;;;;;;7.52;57.58;99500.03;471011;1170;113819;-70
2021/04/03 13:08:33;;;;;;;2.43;1.90;;;;;;;7.57;54.64;99492.81;470992;1167;114041;-70
2021/04/03 13:18:37;;;;;;;2.30;2.10;;;;;;;7.13;54.39;99496.80;471189;1169;113485;-70
2021/04/03 13:28:41;;;;;;;3.73;3.07;;;;;;;6.30;57.08;99499.99;463299;1167;10001460;-66
2021/04/03 13:38:44;;;;;;;3.10;2.85;;;;;;;5.99;58.18;99530.07;471041;1167;113956;-71
2021/04/03 13:48:48;;;;;;;3.10;2.77;;;;;;;5.11;59.90;99560.83;472066;1168;114027;-64
2021/04/03 13:58:52;;;;;;;2.67;2.47;;;;;;;3.04;63.74;99602.22;463643;1169;10001501;-66
2021/04/03 14:08:56;;;;;;;3.10;2.00;;;;;;;2.15;64.84;99616.19;471651;1168;114440;-69
2021/04/03 14:19:01;;;;;;;9.23;5.80;;;;;;;2.07;66.41;99580.14;471890;1168;114962;-61
2021/04/03 14:29:06;;;;;;;9.77;6.33;;;;;;;2.92;67.07;99577.54;472047;1170;113712;-72
2021/04/03 14:39:11;;;;;;;4.60;3.37;;;;;;;3.62;66.87;99576.93;472583;1168;113829;-65
2021/04/03 14:49:15;;;;;;;2.47;2.13;;;;;;;4.02;67.10;99585.86;471314;1170;114024;-66
2021/04/03 14:59:19;;;;;;;4.00;3.60;;;;;;;3.97;67.33;99576.54;471129;1168;114042;-65
2021/04/03 15:09:22;;;;;;;4.53;3.50;;;;;;;3.94;67.83;99574.92;471485;1168;114450;-65
2021/04/03 15:19:26;;;;;;;4.95;3.40;;;;;;;3.88;68.46;99568.20;471332;1170;113847;-65
2021/04/03 15:29:30;;;;;;;3.67;3.00;;;;;;;3.89;68.34;99577.69;471030;1170;114034;-65
2021/04/03 15:39:35;;;;;;;3.23;2.57;;;;;;;4.04;67.90;99589.27;471621;1168;114120;-65
2021/04/03 15:49:38;;;;;;;2.50;2.30;;;;;;;3.98;67.92;99591.22;471382;1169;113649;-65
2021/04/03 15:59:43;;;;;;;5.03;3.50;;;;;;;3.89;67.28;99592.41;471878;1170;113878;-66
2021/04/03 16:09:46;;;;;;;4.30;3.53;;;;;;;3.75;67.67;99595.50;471308;1171;114716;-65
2021/04/03 16:19:50;;;;;;;5.77;3.30;;;;;;;3.64;67.87;99598.49;471514;1170;117582;-65
2021/04/03 16:29:56;;;;;;;6.50;3.10;;;;;;;3.52;68.06;99609.31;471551;1171;114103;-64
2021/04/03 16:40:05;;;;;;;4.17;3.03;;;;;;;3.49;67.05;99618.91;471567;1169;114732;-64
2021/04/03 16:50:11;;;;;;;3.80;2.95;;;;;;;3.38;65.90;99625.34;471981;1171;114482;-65
2021/04/03 17:00:17;;;;;;;4.03;2.07;;;;;;;3.25;65.00;99630.95;471456;1169;114459;-64
2021/04/03 17:10:21;;;;;;;3.67;1.87;;;;;;;3.07;65.45;99630.67;471285;1170;114028;-64
2021/04/03 17:20:25;;;;;;;3.20;1.50;;;;;;;3.00;64.95;99642.13;471010;1168;113945;-64
2021/04/03 17:30:30;;;;;;;2.17;1.50;;;;;;;2.86;64.67;99650.34;471476;1170;113719;-65
2021/04/03 17:40:34;;;;;;;4.73;1.97;;;;;;;2.66;64.97;99649.23;471380;1169;114088;-70
2021/04/03 17:50:39;;;;;;;1.93;1.47;;;;;;;2.43;64.73;99667.22;472450;1170;114231;-70
2021/04/03 18:00:43;;;;;;;4.13;1.97;;;;;;;2.18;64.36;99691.22;472820;1170;113946;-67
2021/04/03 18:10:47;;;;;;;6.30;2.60;;;;;;;1.94;64.70;99706.54;471395;1169;114451;-68
2021/04/03 18:20:52;;;;;;;4.53;2.10;;;;;;;1.88;63.69;99720.50;472087;1169;114282;-70
2021/04/03 18:30:56;;;;;;;3.23;2.20;;;;;;;1.84;63.89;99733.56;472250;1169;113791;-62
2021/04/03 18:41:01;;;;;;;6.00;1.95;;;;;;;1.72;63.60;99743.34;471333;1168;114307;-62
2021/04/03 18:51:07;;;;;;;4.77;2.70;;;;;;;1.59;63.77;99755.75;471266;1171;113595;-74
2021/04/03 19:01:12;;;;;;;3.90;2.30;;;;;;;1.46;64.31;99759.53;471582;1170;113656;-71
2021/04/03 19:11:15;;;;;;;6.50;2.97;;;;;;;1.34;65.33;99782.22;471448;1168;114697;-69
2021/04/03 19:21:19;;;;;;;7.17;2.73;;;;;;;1.28;65.41;99784.09;471148;1168;113946;-69
2021/04/03 19:31:23;;;;;;;7.67;3.17;;;;;;;1.16;66.25;99799.01;470691;1168;113769;-69
2021/04/03 19:41:27;;;;;;;7.77;3.60;;;;;;;1.08;66.06;99800.91;482439;1169;114440;-70
2021/04/03 19:51:31;;;;;;;6.97;3.40;;;;;;;0.94;66.69;99807.22;471294;1168;113667;-70
2021/04/03 20:01:34;;;;;;;7.27;4.13;;;;;;;0.82;66.59;99821.23;472114;1168;113704;-70
2021/04/03 20:11:39;;;;;;;5.83;3.70;;;;;;;0.68;66.93;99825.84;471056;1168;114478;-69
2021/04/03 20:21:43;;;;;;;8.07;3.20;;;;;;;0.61;66.61;99835.45;471516;1168;113911;-71
2021/04/03 20:31:48;;;;;;;8.43;3.73;;;;;;;0.53;66.66;99832.15;471668;1168;113715;-71
2021/04/03 20:41:52;;;;;;;9.23;4.70;;;;;;;0.43;66.75;99835.78;472310;1170;114911;-73
2021/04/03 20:51:57;;;;;;;7.33;4.57;;;;;;;0.34;66.89;99847.14;471872;1168;114115;-68
2021/04/03 21:02:02;;;;;;;4.93;3.13;;;;;;;0.24;66.45;99855.05;471460;1169;113968;-70
2021/04/03 21:12:08;;;;;;;6.75;3.40;;;;;;;0.17;67.04;99861.18;470939;1169;113631;-67
2021/04/03 21:22:12;;;;;;;5.93;3.63;;;;;;;0.13;66.96;99869.87;471238;1168;114017;-63
2021/04/03 21:32:15;;;;;;;7.47;4.27;;;;;;;0.03;67.08;99874.34;463507;1169;10001520;-69
2021/04/03 21:42:19;;;;;;;9.45;3.95;;;;;;;-0.03;67.86;99888.20;471515;1171;113936;-69
2021/04/03 21:52:23;;;;;;;8.55;4.15;;;;;;;-0.12;68.04;99890.92;471252;1169;114216;-71
2021/04/03 22:02:27;;;;;;;8.40;3.90;;;;;;;-0.15;67.99;99893.55;471141;1170;114417;-69
2021/04/03 22:12:31;;;;;;;5.20;2.43;;;;;;;-0.23;68.35;99900.55;471124;1169;114355;-63
2021/04/03 22:22:36;;;;;;;9.87;4.03;;;;;;;-0.36;68.93;99900.73;471214;1169;114073;-62
2021/04/03 22:32:41;;;;;;;7.95;3.85;;;;;;;-0.48;69.05;99909.48;471171;1170;113785;-63
2021/04/03 22:42:44;;;;;;;5.60;3.67;;;;;;;-0.57;69.42;99914.78;471227;1171;114221;-63
2021/04/03 22:52:48;;;;;;;6.57;3.23;;;;;;;-0.71;69.83;99910.63;471311;1169;114365;-63
2021/04/03 23:02:53;;;;;;;6.95;4.60;;;;;;;-0.82;70.32;99906.49;471274;1168;114035;-63
2021/04/03 23:12:57;;;;;;;7.00;4.30;;;;;;;-0.90;70.70;99917.73;471480;1169;114246;-63
2021/04/03 23:23:01;;;;;;;13.23;5.57;;;;;;;-1.01;70.94;99914.43;471049;1169;114105;-62
2021/04/03 23:33:06;;;;;;;7.87;4.13;;;;;;;-1.13;71.54;99913.69;471863;1169;114225;-63
2021/04/03 23:43:11;;;;;;;9.30;5.37;;;;;;;-1.18;72.19;99914.61;471415;1169;114092;-63
2021/04/03 23:53:15;;;;;;;5.90;3.95;;;;;;;-1.25;72.47;99924.13;471370;1169;114001;-63
